Time;durP1;ratioP1;P1;durP2;ratioP2;P2;SDS_P1;SDS_P2;PMS_P1;PMS_P2;Temp;Humidity;BMP_temperature;BMP_pressure;BME280_temperature;BME280_humidity;BME280_pressure;Samples;Min_cycle;Max_cycle;Signal;HPM_P1;HPM_P2
2021/01/29 00:00:01;;;;;;;0.50;0.50;;;-1.40;99.90;;;;;;5052365;28;20208;-89
2021/01/29 00:02:27;;;;;;;0.60;0.60;;;-0.80;99.90;;;;;;5051930;28;20231;-88
2021/01/29 00:04:53;;;;;;;0.55;0.55;;;-1.30;99.90;;;;;;5052382;28;20227;-88
2021/01/29 00:07:19;;;;;;;0.60;0.60;;;-2.10;99.90;;;;;;5052677;28;20254;-88
2021/01/29 00:09:46;;;;;;;0.55;0.55;;;1.20;99.90;;;;;;5052027;28;20624;-88
2021/01/29 00:12:12;;;;;;;0.60;0.60;;;-0.50;99.90;;;;;;5052008;28;20227;-89
2021/01/29 00:14:39;;;;;;;0.60;0.60;;;-1.50;99.90;;;;;;5052317;28;20200;-88
2021/01/29 00:17:05;;;;;;;0.60;0.60;;;-2.00;99.90;;;;;;5052975;28;20200;-89
2021/01/29 00:19:32;;;;;;;0.60;0.60;;;-1.30;99.90;;;;;;5052414;28;20462;-88
2021/01/29 00:21:58;;;;;;;0.60;0.60;;;-1.40;99.90;;;;;;5052280;28;20208;-88
2021/01/29 00:24:25;;;;;;;0.60;0.60;;;-0.60;99.90;;;;;;5051925;28;20220;-89
2021/01/29 00:26:51;;;;;;;0.60;0.60;;;0.80;99.90;;;;;;5052479;28;20211;-89
2021/01/29 00:29:18;;;;;;;0.60;0.60;;;-1.40;99.90;;;;;;5052321;28;20227;-89
2021/01/29 00:31:45;;;;;;;0.60;0.60;;;-1.80;99.90;;;;;;5051287;28;20226;-89
2021/01/29 00:34:11;;;;;;;0.60;0.60;;;-0.90;99.90;;;;;;5051876;28;20416;-89
2021/01/29 00:36:38;;;;;;;0.60;0.60;;;-2.20;99.90;;;;;;5051638;28;20223;-89
2021/01/29 00:39:04;;;;;;;0.60;0.60;;;-0.90;99.90;;;;;;5052059;28;20283;-88
2021/01/29 00:41:31;;;;;;;0.60;0.60;;;-1.20;99.90;;;;;;5051879;28;20200;-89
2021/01/29 00:43:57;;;;;;;0.60;0.60;;;-1.00;99.90;;;;;;5051532;28;20224;-89
2021/01/29 00:46:24;;;;;;;0.60;0.60;;;-1.70;99.90;;;;;;5051533;28;20239;-89
2021/01/29 00:48:51;;;;;;;0.60;0.60;;;-1.30;99.90;;;;;;5052000;28;20291;-89
2021/01/29 00:51:17;;;;;;;0.60;0.60;;;-1.40;99.90;;;;;;5051118;28;20211;-89
2021/01/29 00:53:44;;;;;;;0.60;0.60;;;-1.40;99.90;;;;;;5051509;28;20515;-89
2021/01/29 00:56:10;;;;;;;0.60;0.60;;;1.10;99.90;;;;;;5051122;28;20212;-89
2021/01/29 00:58:37;;;;;;;0.50;0.50;;;-1.70;99.90;;;;;;5051434;28;20210;-89
2021/01/29 01:01:03;;;;;;;0.60;0.60;;;-1.30;99.90;;;;;;5051614;28;20302;-89
2021/01/29 01:03:30;;;;;;;0.50;0.50;;;-1.10;99.90;;;;;;5051050;28;20224;-88
2021/01/29 01:05:57;;;;;;;0.55;0.55;;;-1.10;99.90;;;;;;5051267;28;20228;-89
2021/01/29 01:08:24;;;;;;;0.50;0.50;;;-1.00;99.90;;;;;;5051479;28;20207;-88
2021/01/29 01:10:51;;;;;;;0.60;0.60;;;-1.10;99.90;;;;;;5051787;28;20208;-88
2021/01/29 01:13:18;;;;;;;0.60;0.60;;;-0.10;99.90;;;;;;5051322;28;20208;-88
2021/01/29 01:15:44;;;;;;;0.60;0.60;;;-0.90;99.90;;;;;;5051029;28;20287;-89
2021/01/29 01:18:10;;;;;;;0.60;0.60;;;0.50;99.90;;;;;;5051261;28;20203;-88
2021/01/29 01:20:37;;;;;;;0.57;0.57;;;-1.30;99.90;;;;;;5050943;28;20212;-89
2021/01/29 01:23:05;;;;;;;0.60;0.60;;;-0.60;99.90;;;;;;5051471;28;20224;-88
2021/01/29 01:25:31;;;;;;;0.50;0.50;;;-1.50;99.90;;;;;;5051038;28;20204;-88
2021/01/29 01:27:59;;;;;;;0.60;0.60;;;-0.10;99.90;;;;;;5051087;28;20659;-89
2021/01/29 01:30:29;;;;;;;0.60;0.60;;;1.00;99.90;;;;;;5050837;28;20228;-89
2021/01/29 01:32:56;;;;;;;0.60;0.60;;;-1.40;99.90;;;;;;5050919;28;20205;-89
2021/01/29 01:35:22;;;;;;;0.60;0.60;;;-0.90;99.90;;;;;;5050827;28;20655;-89
2021/01/29 01:37:50;;;;;;;0.50;0.50;;;-1.60;99.90;;;;;;5051181;28;20242;-89
2021/01/29 01:40:22;;;;;;;0.50;0.50;;;-1.10;99.90;;;;;;5050730;28;20287;-89
2021/01/29 01:42:49;;;;;;;0.60;0.60;;;0.60;99.90;;;;;;5050514;28;20206;-89
2021/01/29 01:45:50;;;;;;;0.55;0.55;;;-1.30;99.90;;;;;;5050118;28;20236;-89
2021/01/29 01:48:31;;;;;;;0.55;0.55;;;-0.60;99.90;;;;;;5050178;28;20227;-89
2021/01/29 01:51:02;;;;;;;0.60;0.60;;;-0.70;99.90;;;;;;5050257;28;20204;-89
2021/01/29 01:53:32;;;;;;;0.60;0.60;;;-1.10;99.90;;;;;;5050110;28;20311;-90
2021/01/29 01:56:10;;;;;;;0.50;0.50;;;-0.70;99.90;;;;;;5050382;28;20204;-89
2021/01/29 01:58:37;;;;;;;0.60;0.60;;;1.10;99.90;;;;;;5050689;28;20665;-89
2021/01/29 02:01:05;;;;;;;0.60;0.60;;;-0.20;99.90;;;;;;5050486;28;20204;-89
2021/01/29 02:03:34;;;;;;;0.60;0.60;;;0.00;99.90;;;;;;5050032;28;20235;-89
2021/01/29 02:06:01;;;;;;;0.60;0.60;;;-0.10;99.90;;;;;;5050224;28;20283;-89
2021/01/29 02:08:31;;;;;;;0.60;0.60;;;0.90;99.90;;;;;;5049887;28;20243;-89
2021/01/29 02:10:57;;;;;;;0.60;0.60;;;0.30;99.90;;;;;;5049758;28;20224;-89
2021/01/29 02:13:25;;;;;;;0.50;0.50;;;-1.40;99.90;;;;;;5049767;28;20231;-89
2021/01/29 02:16:00;;;;;;;0.60;0.60;;;-1.40;99.90;;;;;;5050432;28;20208;-90
2021/01/29 02:18:37;;;;;;;0.50;0.50;;;-0.90;99.90;;;;;;5049699;28;20249;-89
2021/01/29 02:21:34;;;;;;;0.57;0.57;;;-1.00;99.90;;;;;;5050093;28;20208;-89
2021/01/29 02:24:56;;;;;;;0.60;0.60;;;0.20;99.90;;;;;;5049931;28;20220;-89
2021/01/29 02:27:38;;;;;;;0.60;0.60;;;-0.80;99.90;;;;;;5049278;28;20233;-89
2021/01/29 02:30:29;;;;;;;0.60;0.60;;;-1.50;99.90;;;;;;5050171;28;20204;-88
2021/01/29 02:33:47;;;;;;;0.60;0.60;;;0.20;99.90;;;;;;5040911;28;20262;-88
2021/01/29 02:36:49;;;;;;;0.50;0.50;;;-0.70;99.90;;;;;;5049816;28;20204;-89
2021/01/29 02:39:36;;;;;;;0.60;0.60;;;0.40;99.90;;;;;;5049426;28;20203;-89
2021/01/29 02:42:12;;;;;;;0.60;0.60;;;-1.30;99.90;;;;;;5044623;28;20208;-89
2021/01/29 02:44:53;;;;;;;0.60;0.60;;;-1.60;99.90;;;;;;5049387;28;20710;-89
2021/01/29 02:47:22;;;;;;;0.60;0.60;;;-1.60;99.90;;;;;;5050018;28;20295;-89
2021/01/29 02:50:04;;;;;;;0.50;0.50;;;0.60;99.90;;;;;;5049752;28;20208;-89
2021/01/29 02:52:37;;;;;;;0.60;0.60;;;-1.60;99.90;;;;;;5049438;28;20250;-89
2021/01/29 02:55:12;;;;;;;0.60;0.60;;;0.00;99.90;;;;;;5050050;28;20294;-89
2021/01/29 02:57:46;;;;;;;0.60;0.60;;;-0.80;99.90;;;;;;5052069;28;20200;-88
2021/01/29 03:00:16;;;;;;;0.60;0.60;;;0.80;99.90;;;;;;5056357;28;20195;-89
2021/01/29 03:02:48;;;;;;;0.60;0.60;;;-0.50;99.90;;;;;;5055512;28;20212;-89
2021/01/29 03:05:19;;;;;;;0.60;0.60;;;-1.60;99.90;;;;;;5052215;28;20204;-89
2021/01/29 03:07:52;;;;;;;0.60;0.60;;;0.40;99.90;;;;;;5049666;28;20291;-89
2021/01/29 03:10:31;;;;;;;0.60;0.60;;;-1.70;99.90;;;;;;5049780;28;20200;-88
2021/01/29 03:13:02;;;;;;;0.60;0.60;;;-1.70;99.90;;;;;;5050367;28;20199;-89
2021/01/29 03:15:33;;;;;;;0.50;0.50;;;-0.50;99.90;;;;;;5053515;28;20200;-89
2021/01/29 03:18:05;;;;;;;0.50;0.50;;;1.30;99.90;;;;;;5053441;28;20208;-88
2021/01/29 03:20:35;;;;;;;0.50;0.50;;;0.00;99.90;;;;;;5053327;28;20254;-89
2021/01/29 03:23:07;;;;;;;0.60;0.60;;;-1.40;99.90;;;;;;5052773;28;20219;-89
2021/01/29 03:25:40;;;;;;;0.60;0.60;;;0.00;99.90;;;;;;5053787;28;20207;-89
2021/01/29 03:28:10;;;;;;;0.50;0.50;;;0.00;99.90;;;;;;5053609;28;20282;-88
2021/01/29 03:30:40;;;;;;;0.60;0.60;;;-0.30;99.90;;;;;;5053168;28;20216;-89
2021/01/29 03:33:10;;;;;;;0.60;0.60;;;-0.60;99.90;;;;;;5053206;28;20287;-88
2021/01/29 03:35:40;;;;;;;0.60;0.60;;;-0.60;99.90;;;;;;5053063;28;20197;-88
2021/01/29 03:38:12;;;;;;;0.60;0.60;;;-0.90;99.90;;;;;;5053280;28;20204;-89
2021/01/29 03:40:40;;;;;;;0.60;0.60;;;-1.00;99.90;;;;;;5052966;28;20199;-89
2021/01/29 03:43:22;;;;;;;0.50;0.50;;;-0.10;99.90;;;;;;5053074;28;20239;-89
2021/01/29 03:45:54;;;;;;;0.60;0.60;;;-1.90;99.90;;;;;;5053046;28;20243;-89
2021/01/29 03:48:25;;;;;;;0.60;0.60;;;1.00;99.90;;;;;;5052974;28;20211;-88
2021/01/29 03:50:58;;;;;;;0.60;0.60;;;-0.20;99.90;;;;;;5052710;28;20211;-88
2021/01/29 03:53:34;;;;;;;0.60;0.60;;;-1.00;99.90;;;;;;5052413;28;20254;-89
2021/01/29 03:56:07;;;;;;;0.60;0.60;;;-0.30;99.90;;;;;;5052595;28;20200;-89
2021/01/29 03:58:42;;;;;;;0.60;0.60;;;-1.10;99.90;;;;;;5052708;28;20199;-89
2021/01/29 04:01:20;;;;;;;0.60;0.60;;;-1.30;99.90;;;;;;5052523;28;20289;-89
2021/01/29 04:04:02;;;;;;;0.60;0.60;;;-0.10;99.90;;;;;;5052158;28;20589;-88
2021/01/29 04:06:34;;;;;;;0.60;0.60;;;-1.20;99.90;;;;;;5052307;28;20192;-89
2021/01/29 04:09:07;;;;;;;0.50;0.50;;;-1.10;99.90;;;;;;5052303;28;20204;-88
2021/01/29 04:11:41;;;;;;;0.60;0.60;;;-0.90;99.90;;;;;;5052277;28;20211;-88
2021/01/29 04:14:12;;;;;;;0.60;0.60;;;-1.00;99.90;;;;;;5052204;28;20200;-88
2021/01/29 04:16:42;;;;;;;0.60;0.60;;;-1.10;99.90;;;;;;5052125;28;20257;-88
2021/01/29 04:19:14;;;;;;;0.60;0.60;;;-0.90;99.90;;;;;;5051994;28;20212;-88
2021/01/29 04:21:47;;;;;;;0.60;0.60;;;-1.60;99.90;;;;;;5052045;28;20208;-88
2021/01/29 04:24:20;;;;;;;0.60;0.60;;;-0.60;99.90;;;;;;5051736;28;20216;-88
2021/01/29 04:26:52;;;;;;;0.60;0.60;;;-0.50;99.90;;;;;;5051914;28;20199;-88
2021/01/29 04:29:22;;;;;;;0.60;0.60;;;-1.70;99.90;;;;;;5052120;28;20197;-89
2021/01/29 04:31:54;;;;;;;0.60;0.60;;;-1.10;99.90;;;;;;5052465;28;20593;-88
2021/01/29 04:34:24;;;;;;;0.65;0.65;;;-0.70;99.90;;;;;;5052272;28;20598;-88
2021/01/29 04:36:53;;;;;;;0.60;0.60;;;-0.30;99.90;;;;;;5052323;28;20212;-89
2021/01/29 04:39:25;;;;;;;0.60;0.60;;;-1.00;99.90;;;;;;5051964;28;20262;-88
2021/01/29 04:42:09;;;;;;;0.60;0.60;;;-1.00;99.90;;;;;;5051890;28;20547;-88
2021/01/29 04:45:00;;;;;;;0.60;0.60;;;-1.10;99.90;;;;;;5051539;28;20326;-88
2021/01/29 04:47:30;;;;;;;0.50;0.50;;;-0.90;99.90;;;;;;5031224;28;20466;-87
2021/01/29 04:50:23;;;;;;;0.60;0.60;;;-1.10;99.90;;;;;;5031440;28;20220;-88
2021/01/29 04:53:26;;;;;;;0.60;0.60;;;-0.50;99.90;;;;;;5024817;28;20212;-88
2021/01/29 04:56:19;;;;;;;0.60;0.60;;;-0.90;99.90;;;;;;5031763;28;20299;-88
2021/01/29 04:59:03;;;;;;;0.60;0.60;;;-1.00;99.90;;;;;;5031267;28;20208;-87
2021/01/29 05:02:00;;;;;;;0.50;0.50;;;-1.00;99.90;;;;;;5031411;28;20216;-88
2021/01/29 05:04:50;;;;;;;0.50;0.50;;;-0.90;99.90;;;;;;5031081;28;20417;-88
2021/01/29 05:07:57;;;;;;;0.60;0.60;;;-0.90;99.90;;;;;;5031017;28;20219;-89
2021/01/29 05:10:57;;;;;;;0.60;0.60;;;-1.10;99.90;;;;;;5030769;28;20217;-88
2021/01/29 05:13:57;;;;;;;0.60;0.60;;;-0.90;99.90;;;;;;5030376;28;20557;-89
2021/01/29 05:16:59;;;;;;;0.60;0.60;;;-0.90;99.90;;;;;;5030928;28;20200;-89
2021/01/29 05:19:51;;;;;;;0.57;0.57;;;-0.90;99.90;;;;;;5030847;28;20303;-89
2021/01/29 05:22:56;;;;;;;0.60;0.60;;;-0.90;99.90;;;;;;5031466;28;20573;-89
2021/01/29 05:26:03;;;;;;;0.60;0.60;;;-0.90;99.90;;;;;;5030950;28;20208;-88
2021/01/29 05:29:03;;;;;;;0.52;0.52;;;-0.50;99.90;;;;;;5030938;28;20199;-88
2021/01/29 05:31:44;;;;;;;0.60;0.60;;;-0.90;99.90;;;;;;5030564;28;20591;-89
2021/01/29 05:34:29;;;;;;;0.50;0.50;;;-1.00;99.90;;;;;;5030540;28;20235;-88
2021/01/29 05:37:38;;;;;;;0.60;0.60;;;-0.90;99.90;;;;;;5030127;28;20350;-89
2021/01/29 05:40:18;;;;;;;0.60;0.60;;;-0.90;99.90;;;;;;5030957;28;20200;-88
2021/01/29 05:42:59;;;;;;;0.60;0.60;;;-0.90;99.90;;;;;;5030557;28;20212;-88
2021/01/29 05:45:42;;;;;;;0.60;0.60;;;-0.70;99.90;;;;;;5035585;28;20585;-88
2021/01/29 05:48:31;;;;;;;0.60;0.60;;;-1.00;99.90;;;;;;5050671;28;20671;-88
2021/01/29 05:51:29;;;;;;;0.60;0.60;;;-0.80;99.90;;;;;;5050982;28;20412;-87
2021/01/29 05:54:34;;;;;;;0.60;0.60;;;-0.90;99.90;;;;;;5051840;28;20672;-89
2021/01/29 05:57:25;;;;;;;0.52;0.52;;;-0.90;99.90;;;;;;5051123;28;20215;-88
2021/01/29 06:00:05;;;;;;;0.60;0.60;;;-1.00;99.90;;;;;;5051236;28;20285;-88
2021/01/29 06:03:00;;;;;;;0.60;0.60;;;-0.70;99.90;;;;;;5049902;28;20576;-88
2021/01/29 06:05:53;;;;;;;0.60;0.60;;;-0.90;99.90;;;;;;5050068;28;20205;-88
2021/01/29 06:08:52;;;;;;;0.50;0.50;;;-0.90;99.90;;;;;;5050156;28;20598;-88
2021/01/29 06:11:32;;;;;;;0.50;0.50;;;-1.00;99.90;;;;;;5050205;28;20587;-88
2021/01/29 06:14:40;;;;;;;0.60;0.60;;;-1.00;99.90;;;;;;5050072;28;20690;-88
2021/01/29 06:17:42;;;;;;;0.55;0.55;;;-1.00;99.90;;;;;;5014444;28;20208;-87
2021/01/29 06:20:45;;;;;;;0.50;0.50;;;-1.10;99.90;;;;;;5041592;28;20214;-88
2021/01/29 06:23:51;;;;;;;0.60;0.60;;;1.00;99.90;;;;;;5033160;28;20317;-88
2021/01/29 06:26:30;;;;;;;0.60;0.60;;;-1.00;99.90;;;;;;5046672;28;20668;-88
2021/01/29 06:29:12;;;;;;;0.60;0.60;;;-1.20;99.90;;;;;;5037635;28;20185;-88
2021/01/29 06:32:16;;;;;;;0.60;0.60;;;0.40;99.90;;;;;;5037990;28;20201;-88
2021/01/29 06:35:07;;;;;;;0.60;0.60;;;-1.00;99.90;;;;;;5034976;28;20483;-89
2021/01/29 06:37:49;;;;;;;0.60;0.60;;;-1.00;99.90;;;;;;5036981;28;20208;-87
2021/01/29 06:40:31;;;;;;;0.60;0.60;;;-1.00;99.90;;;;;;5037487;28;20569;-87
2021/01/29 06:43:25;;;;;;;0.57;0.57;;;1.10;99.90;;;;;;5037832;28;20696;-88
2021/01/29 06:46:11;;;;;;;0.60;0.60;;;-1.00;99.90;;;;;;5018021;28;20260;-87
2021/01/29 06:48:56;;;;;;;0.60;0.60;;;-1.00;99.90;;;;;;5051224;28;20215;-87
2021/01/29 06:52:16;;;;;;;0.60;0.60;;;-1.00;99.90;;;;;;5040826;28;20208;-88
2021/01/29 06:55:03;;;;;;;0.60;0.60;;;-0.50;99.90;;;;;;5021761;28;20199;-87
2021/01/29 06:57:49;;;;;;;0.50;0.50;;;-1.20;99.90;;;;;;5051647;28;20208;-87
2021/01/29 07:00:55;;;;;;;0.60;0.60;;;-1.00;99.90;;;;;;5047764;28;20224;-88
2021/01/29 07:03:56;;;;;;;0.52;0.52;;;0.30;99.90;;;;;;5032378;28;20746;-88
2021/01/29 07:06:44;;;;;;;0.60;0.60;;;-0.70;99.90;;;;;;5041051;28;20206;-87
2021/01/29 07:09:19;;;;;;;0.60;0.60;;;-0.80;99.90;;;;;;5052931;28;20223;-87
2021/01/29 07:12:09;;;;;;;0.60;0.60;;;-1.10;99.90;;;;;;5051737;28;20214;-87
2021/01/29 07:15:13;;;;;;;0.60;0.60;;;-0.80;99.90;;;;;;5053051;28;20216;-89
2021/01/29 07:18:04;;;;;;;0.52;0.52;;;-1.00;99.90;;;;;;5020101;28;20670;-88
2021/01/29 07:21:00;;;;;;;0.60;0.60;;;-1.00;99.90;;;;;;5035375;28;20233;-87
2021/01/29 07:23:37;;;;;;;0.60;0.60;;;-1.10;99.90;;;;;;5035720;28;20572;-87
2021/01/29 07:26:20;;;;;;;0.60;0.60;;;-1.00;99.90;;;;;;5035103;28;20209;-89
2021/01/29 07:29:06;;;;;;;0.60;0.60;;;-0.80;99.90;;;;;;5037578;28;20208;-87
2021/01/29 07:31:47;;;;;;;0.60;0.60;;;-1.40;99.90;;;;;;5039534;28;20216;-87
2021/01/29 07:34:32;;;;;;;0.60;0.60;;;0.60;99.90;;;;;;5055444;28;20208;-88
2021/01/29 07:37:25;;;;;;;0.60;0.60;;;-1.50;99.90;;;;;;5053913;28;20201;-87
2021/01/29 07:40:04;;;;;;;0.60;0.60;;;-1.00;99.90;;;;;;5053625;28;20741;-88
2021/01/29 07:42:47;;;;;;;0.60;0.60;;;-1.00;99.90;;;;;;5055558;28;20203;-87
2021/01/29 07:45:32;;;;;;;0.60;0.60;;;-1.00;99.90;;;;;;5054425;28;20302;-87
2021/01/29 07:48:36;;;;;;;0.60;0.60;;;-1.00;99.90;;;;;;5054988;28;20231;-87
2021/01/29 07:51:08;;;;;;;0.60;0.60;;;-1.00;99.90;;;;;;5055487;28;20277;-87
2021/01/29 07:53:42;;;;;;;0.60;0.60;;;-1.00;99.90;;;;;;5055880;28;20215;-85
2021/01/29 07:56:23;;;;;;;0.60;0.60;;;-1.00;99.90;;;;;;5055921;28;20215;-86
2021/01/29 07:59:05;;;;;;;0.60;0.60;;;1.30;99.90;;;;;;5053045;28;20208;-86
2021/01/29 08:01:42;;;;;;;0.60;0.60;;;-1.00;99.90;;;;;;5054658;28;20211;-85
2021/01/29 08:04:29;;;;;;;0.60;0.60;;;-1.10;99.90;;;;;;5055513;28;20250;-86
2021/01/29 08:07:13;;;;;;;0.60;0.60;;;-1.00;99.90;;;;;;5053833;28;20234;-87
2021/01/29 08:09:43;;;;;;;0.60;0.60;;;-0.90;99.90;;;;;;5042497;28;20286;-87
2021/01/29 08:12:12;;;;;;;0.60;0.60;;;-0.90;99.90;;;;;;5044902;28;20204;-86
2021/01/29 08:15:15;;;;;;;0.60;0.60;;;-1.60;99.90;;;;;;5036970;28;20205;-87
2021/01/29 08:18:00;;;;;;;0.60;0.60;;;-0.90;99.90;;;;;;5030993;28;20296;-87
2021/01/29 08:20:37;;;;;;;0.60;0.60;;;-1.30;99.90;;;;;;5030328;28;20293;-87
2021/01/29 08:23:20;;;;;;;0.60;0.60;;;-0.50;99.90;;;;;;5032184;28;20296;-86
2021/01/29 08:26:29;;;;;;;0.60;0.60;;;1.60;99.90;;;;;;5050297;28;20212;-87
2021/01/29 08:29:42;;;;;;;0.60;0.60;;;-0.80;99.90;;;;;;5026316;28;20672;-87
2021/01/29 08:32:48;;;;;;;0.60;0.60;;;-0.60;99.90;;;;;;5032255;28;20600;-86
2021/01/29 08:35:30;;;;;;;0.60;0.60;;;-0.80;99.90;;;;;;5032295;28;20648;-86
2021/01/29 08:38:03;;;;;;;0.60;0.60;;;-0.90;99.90;;;;;;5032211;28;20201;-86
2021/01/29 08:40:35;;;;;;;0.50;0.50;;;-1.00;99.90;;;;;;5033092;28;20287;-86
2021/01/29 08:43:30;;;;;;;0.50;0.50;;;-1.30;99.90;;;;;;5032248;28;20660;-86
2021/01/29 08:46:09;;;;;;;0.60;0.60;;;-0.70;99.90;;;;;;5004854;28;20233;-86
2021/01/29 08:48:59;;;;;;;0.60;0.60;;;-0.70;99.90;;;;;;5032392;28;20205;-88
2021/01/29 08:51:31;;;;;;;0.60;0.60;;;-0.70;99.90;;;;;;5032225;28;20255;-87
2021/01/29 08:54:26;;;;;;;0.60;0.60;;;-0.10;99.90;;;;;;5031905;28;20208;-86
2021/01/29 08:57:01;;;;;;;0.60;0.60;;;-1.00;99.90;;;;;;5035132;28;20295;-86
2021/01/29 08:59:33;;;;;;;0.60;0.60;;;1.10;99.90;;;;;;5033809;28;20197;-87
2021/01/29 09:02:04;;;;;;;0.60;0.60;;;0.90;99.90;;;;;;5032589;28;20271;-87
2021/01/29 09:04:37;;;;;;;0.60;0.60;;;0.20;99.90;;;;;;5032064;28;20632;-86
2021/01/29 09:07:09;;;;;;;0.60;0.60;;;-0.50;99.90;;;;;;5032401;28;20205;-87
2021/01/29 09:09:37;;;;;;;0.60;0.60;;;-0.80;99.90;;;;;;5031901;28;20223;-87
2021/01/29 09:12:13;;;;;;;0.52;0.52;;;1.60;99.90;;;;;;5031253;28;20676;-87
2021/01/29 09:14:43;;;;;;;0.60;0.60;;;-0.60;99.90;;;;;;5037989;28;20208;-87
2021/01/29 09:17:14;;;;;;;0.60;0.60;;;-1.30;99.90;;;;;;5046473;28;20207;-86
2021/01/29 09:19:45;;;;;;;0.60;0.60;;;-1.20;99.90;;;;;;5041731;28;20484;-87
2021/01/29 09:22:22;;;;;;;0.60;0.60;;;-0.70;99.90;;;;;;5040809;28;20533;-87
2021/01/29 09:24:57;;;;;;;0.60;0.60;;;-0.50;99.90;;;;;;5032057;28;20310;-87
2021/01/29 09:27:42;;;;;;;0.60;0.60;;;-0.30;99.90;;;;;;5034567;28;20290;-86
2021/01/29 09:30:15;;;;;;;0.60;0.60;;;-0.60;99.90;;;;;;5037857;28;20258;-86
2021/01/29 09:32:53;;;;;;;0.60;0.60;;;1.40;99.90;;;;;;5032149;28;20347;-87
2021/01/29 09:35:40;;;;;;;0.60;0.60;;;-0.50;99.90;;;;;;5031672;28;20226;-87
2021/01/29 09:38:15;;;;;;;0.60;0.60;;;-0.40;99.90;;;;;;5031563;28;20292;-87
2021/01/29 09:40:58;;;;;;;0.60;0.60;;;-0.10;99.90;;;;;;5031898;28;20200;-87
2021/01/29 09:43:38;;;;;;;0.60;0.60;;;-0.20;99.90;;;;;;5031318;28;20282;-86
2021/01/29 09:46:06;;;;;;;0.60;0.60;;;1.40;99.90;;;;;;5035023;28;20331;-87
2021/01/29 09:48:37;;;;;;;0.60;0.60;;;1.50;99.90;;;;;;5030635;28;20213;-87
2021/01/29 09:51:21;;;;;;;0.60;0.60;;;-0.70;99.90;;;;;;5031131;28;20209;-87
2021/01/29 09:54:00;;;;;;;0.60;0.60;;;0.80;99.90;;;;;;5030807;28;20610;-87
2021/01/29 09:56:30;;;;;;;0.60;0.60;;;-0.60;99.90;;;;;;5030802;28;20378;-86
2021/01/29 09:59:23;;;;;;;0.60;0.60;;;1.00;99.90;;;;;;5030392;28;20208;-87
2021/01/29 10:02:04;;;;;;;0.60;0.60;;;-0.50;99.90;;;;;;5009561;28;20201;-87
2021/01/29 10:04:51;;;;;;;0.50;0.50;;;0.30;99.90;;;;;;5028782;28;20236;-87
2021/01/29 10:07:23;;;;;;;0.60;0.60;;;0.90;99.90;;;;;;5030076;28;20201;-86
2021/01/29 10:10:01;;;;;;;0.60;0.60;;;-0.30;99.90;;;;;;5030230;28;20299;-86
2021/01/29 10:12:30;;;;;;;0.60;0.60;;;-0.50;99.90;;;;;;5030296;28;20340;-87
2021/01/29 10:15:02;;;;;;;0.60;0.60;;;1.70;99.90;;;;;;5029579;28;20389;-86
2021/01/29 10:17:33;;;;;;;0.60;0.60;;;0.20;99.90;;;;;;5044805;28;20634;-87
2021/01/29 10:20:08;;;;;;;0.60;0.60;;;-1.00;99.90;;;;;;5028458;28;20212;-87
2021/01/29 10:22:56;;;;;;;0.60;0.60;;;1.40;99.90;;;;;;5030043;28;20213;-87
2021/01/29 10:25:37;;;;;;;0.60;0.60;;;-0.30;99.90;;;;;;5042755;28;20233;-86
2021/01/29 10:28:12;;;;;;;0.60;0.60;;;-0.10;99.90;;;;;;5030371;28;20205;-86
2021/01/29 10:30:51;;;;;;;0.60;0.60;;;-0.20;99.90;;;;;;5031308;28;20200;-88
2021/01/29 10:33:25;;;;;;;0.60;0.60;;;-0.10;99.90;;;;;;5030332;28;20256;-87
2021/01/29 10:35:58;;;;;;;0.60;0.60;;;-0.20;99.90;;;;;;5030368;28;20201;-87
2021/01/29 10:38:32;;;;;;;0.60;0.60;;;-0.20;99.90;;;;;;5031428;28;20205;-87
2021/01/29 10:41:10;;;;;;;0.60;0.60;;;0.30;99.90;;;;;;5034156;28;20201;-86
2021/01/29 10:43:42;;;;;;;0.60;0.60;;;0.10;99.90;;;;;;5032155;28;20208;-87
2021/01/29 10:46:23;;;;;;;0.60;0.60;;;0.20;99.90;;;;;;5042503;28;20236;-87
2021/01/29 10:48:57;;;;;;;0.50;0.50;;;1.50;99.90;;;;;;5052736;28;20299;-87
2021/01/29 10:51:46;;;;;;;0.60;0.60;;;0.30;99.90;;;;;;5043010;28;20210;-87
2021/01/29 10:54:13;;;;;;;0.60;0.60;;;0.70;99.90;;;;;;5052971;28;20204;-87
2021/01/29 10:56:50;;;;;;;0.60;0.60;;;0.30;99.90;;;;;;5037196;28;20292;-88
2021/01/29 10:59:21;;;;;;;0.60;0.60;;;0.40;99.90;;;;;;5042176;28;20402;-88
2021/01/29 11:01:57;;;;;;;0.60;0.60;;;0.20;99.90;;;;;;5046920;28;20663;-88
2021/01/29 11:04:26;;;;;;;0.60;0.60;;;0.00;99.90;;;;;;5051842;28;20227;-87
2021/01/29 11:07:05;;;;;;;0.60;0.60;;;1.00;99.90;;;;;;5051650;28;20258;-87
2021/01/29 11:09:35;;;;;;;0.60;0.60;;;0.30;99.90;;;;;;5052223;28;20671;-87
2021/01/29 11:12:14;;;;;;;0.60;0.60;;;0.20;99.90;;;;;;5065361;28;20215;-89
2021/01/29 11:14:47;;;;;;;0.60;0.60;;;0.40;99.90;;;;;;5071804;28;20203;-87
2021/01/29 11:17:20;;;;;;;0.60;0.60;;;0.10;99.90;;;;;;5071832;28;20237;-86
2021/01/29 11:19:49;;;;;;;0.60;0.60;;;0.40;99.90;;;;;;5072016;28;20208;-86
2021/01/29 11:23:04;;;;;;;0.60;0.60;;;0.50;99.90;;;;;;5071718;28;20215;-86
2021/01/29 11:25:49;;;;;;;0.60;0.60;;;0.40;99.90;;;;;;5072023;28;20223;-86
2021/01/29 11:28:37;;;;;;;0.60;0.60;;;0.30;99.90;;;;;;5072122;28;20212;-86
2021/01/29 11:31:09;;;;;;;0.60;0.60;;;0.20;99.90;;;;;;5071609;28;20207;-87
2021/01/29 11:33:38;;;;;;;0.50;0.50;;;-0.10;99.90;;;;;;5070874;28;20294;-87
2021/01/29 11:36:16;;;;;;;0.60;0.60;;;0.40;99.90;;;;;;5074049;28;20207;-86
2021/01/29 11:38:51;;;;;;;0.60;0.60;;;0.40;99.90;;;;;;5073900;28;20214;-86
2021/01/29 11:41:25;;;;;;;0.60;0.60;;;0.40;99.90;;;;;;5074233;28;20550;-86
2021/01/29 11:43:58;;;;;;;0.60;0.60;;;0.20;99.90;;;;;;5075261;28;20231;-86
2021/01/29 11:46:28;;;;;;;0.60;0.60;;;0.40;99.90;;;;;;5062223;28;20556;-86
2021/01/29 11:48:59;;;;;;;0.60;0.60;;;0.40;99.90;;;;;;5055294;28;20204;-86
2021/01/29 11:51:33;;;;;;;0.60;0.60;;;0.40;99.90;;;;;;5055750;28;20254;-86
2021/01/29 11:54:10;;;;;;;0.60;0.60;;;0.40;99.90;;;;;;5055871;28;20280;-86
2021/01/29 11:56:41;;;;;;;0.60;0.60;;;0.40;99.90;;;;;;5055583;28;20211;-86
2021/01/29 11:59:20;;;;;;;0.60;0.60;;;0.40;99.90;;;;;;5055584;28;20204;-86
2021/01/29 12:01:55;;;;;;;0.60;0.60;;;0.30;99.90;;;;;;5055455;28;20200;-87
2021/01/29 12:04:28;;;;;;;0.60;0.60;;;0.40;99.90;;;;;;5055547;28;20234;-86
2021/01/29 12:07:02;;;;;;;0.60;0.60;;;0.40;99.90;;;;;;5055482;28;20212;-86
2021/01/29 12:09:45;;;;;;;0.60;0.60;;;1.60;99.90;;;;;;5054781;28;20882;-86
2021/01/29 12:12:18;;;;;;;0.60;0.60;;;0.30;99.90;;;;;;5055890;28;20199;-85
2021/01/29 12:15:09;;;;;;;0.60;0.60;;;0.40;99.90;;;;;;5055417;28;20535;-86
2021/01/29 12:17:36;;;;;;;0.60;0.60;;;0.50;99.90;;;;;;5055920;28;20261;-86
2021/01/29 12:20:05;;;;;;;0.60;0.60;;;0.40;99.90;;;;;;5055729;28;20208;-86
2021/01/29 12:22:36;;;;;;;0.60;0.60;;;0.30;99.90;;;;;;5055399;28;20208;-87
2021/01/29 12:25:32;;;;;;;0.60;0.60;;;0.30;99.90;;;;;;5055497;28;20691;-86
2021/01/29 12:28:08;;;;;;;0.60;0.60;;;0.30;99.90;;;;;;5055539;28;20211;-87
2021/01/29 12:30:41;;;;;;;0.60;0.60;;;0.30;99.90;;;;;;5055417;28;20200;-86
2021/01/29 12:33:12;;;;;;;0.60;0.60;;;0.70;99.90;;;;;;5055515;28;20204;-86
2021/01/29 12:35:47;;;;;;;0.60;0.60;;;0.00;99.90;;;;;;5055323;28;20276;-87
2021/01/29 12:38:25;;;;;;;0.60;0.60;;;0.20;99.90;;;;;;5055441;28;20199;-86
2021/01/29 12:41:02;;;;;;;0.60;0.60;;;0.20;99.90;;;;;;5055517;28;20672;-86
2021/01/29 12:43:35;;;;;;;0.60;0.60;;;0.20;99.90;;;;;;5055199;28;20204;-86
2021/01/29 12:46:08;;;;;;;0.60;0.60;;;0.00;99.90;;;;;;5053920;28;20590;-86
2021/01/29 12:48:49;;;;;;;0.60;0.60;;;0.00;99.90;;;;;;5055487;28;20284;-86
2021/01/29 12:51:19;;;;;;;0.60;0.60;;;0.30;99.90;;;;;;5055071;28;20205;-86
2021/01/29 12:53:57;;;;;;;0.60;0.60;;;0.10;99.90;;;;;;5054948;28;20200;-86
2021/01/29 12:56:58;;;;;;;0.60;0.60;;;0.10;99.90;;;;;;5054999;28;20250;-86
2021/01/29 12:59:32;;;;;;;0.60;0.60;;;0.10;99.90;;;;;;5040074;28;20212;-86
2021/01/29 13:02:17;;;;;;;0.60;0.60;;;-0.10;99.90;;;;;;5057263;28;20207;-86
2021/01/29 13:04:50;;;;;;;0.60;0.60;;;-0.50;99.90;;;;;;5002189;28;20231;-85
2021/01/29 13:07:28;;;;;;;0.55;0.55;;;-0.10;99.90;;;;;;5043658;28;20225;-85
2021/01/29 13:10:08;;;;;;;0.50;0.50;;;-0.10;99.90;;;;;;5054738;28;20236;-86
2021/01/29 13:12:51;;;;;;;0.60;0.60;;;-0.10;99.90;;;;;;5054743;28;20214;-85
2021/01/29 13:15:36;;;;;;;0.60;0.60;;;-0.20;99.90;;;;;;5054711;28;20203;-86
2021/01/29 13:18:06;;;;;;;0.60;0.60;;;-0.30;99.90;;;;;;5045888;28;20259;-85
2021/01/29 13:20:35;;;;;;;0.60;0.60;;;-0.40;99.90;;;;;;5048856;28;20193;-85
2021/01/29 13:23:21;;;;;;;0.60;0.60;;;-0.50;99.90;;;;;;5054620;28;20204;-85
2021/01/29 13:25:58;;;;;;;0.60;0.60;;;-0.50;99.90;;;;;;5054288;28;20228;-86
2021/01/29 13:28:27;;;;;;;0.60;0.60;;;-0.90;99.90;;;;;;5054766;28;20212;-85
2021/01/29 13:30:53;;;;;;;0.60;0.60;;;-0.60;99.90;;;;;;5054315;28;20437;-85
2021/01/29 13:33:25;;;;;;;0.50;0.50;;;0.30;99.90;;;;;;5054441;28;20205;-85
2021/01/29 13:36:05;;;;;;;0.55;0.55;;;-0.70;99.90;;;;;;5054313;28;20196;-86
2021/01/29 13:38:33;;;;;;;0.50;0.50;;;-0.60;99.90;;;;;;5054060;28;20200;-86
2021/01/29 13:41:13;;;;;;;0.60;0.60;;;-0.70;99.90;;;;;;5054039;28;20289;-86
2021/01/29 13:43:41;;;;;;;0.60;0.60;;;0.00;99.90;;;;;;5053799;28;20675;-85
2021/01/29 13:46:17;;;;;;;0.60;0.60;;;-0.70;99.90;;;;;;5064900;28;20232;-86
2021/01/29 13:48:44;;;;;;;0.60;0.60;;;-0.90;99.90;;;;;;5073889;28;20213;-86